Observations for GLASGOW AIRPORT, United Kingdom (EGPF)

EGPF 231050Z AUTO 21011KT 9999 OVC011 14/13 Q1009   
EGPF 231020Z AUTO 21011KT 9999 OVC011 14/13 Q1009   
EGPF 230950Z AUTO 22006KT 190V290 9999 -RA BKN009 OVC012 13/12 Q1009
EGPF 230920Z AUTO VRB02KT 3900 -DZ BKN005 OVC010 11/11 Q1009 REDZ   
EGPF 230850Z AUTO 05005KT 4000 -DZ BKN004 BKN007 OVC012 11/10 Q1009 REDZ
EGPF 230820Z AUTO 04005KT 2300 DZ BKN004 OVC009 10/10 Q1009 
EGPF 230750Z AUTO 03006KT 3500 -DZ BKN009 OVC012 10/09 Q1009 REDZ   
EGPF 230720Z AUTO 04004KT 3300 DZ BKN010 OVC019 09/09 Q1009 
EGPF 230650Z AUTO 06006KT 8000 BKN013 OVC019 09/08 Q1009
EGPF 230620Z AUTO 06007KT 010V090 9999 -RA BKN016 OVC026 09/08 Q1009
EGPF 230550Z AUTO 05007KT 9999 OVC021 09/08 Q1010   
EGPF 230520Z AUTO 05007KT 030V090 9999 BKN023 BKN028 OVC039 08/07 Q1010 
EGPF 230450Z AUTO 05006KT 9999 SCT033 SCT043 08/07 Q1010
EGPF 230420Z AUTO 06006KT 9999 FEW034 08/07 Q1010   
EGPF 230350Z AUTO 07007KT 9999 SCT027 BKN032 08/07 Q1011
EGPF 230320Z AUTO 06005KT 9999 -RA SCT031 BKN038 07/07 Q1011
EGPF 230250Z AUTO 06005KT 9999 -RA FEW036 07/06 Q1011   
EGPF 230220Z AUTO 07005KT 9999 -RA NCD 07/06 Q1011  
EGPF 230150Z AUTO 06007KT 9999 -RA FEW024 07/06 Q1012   
EGPF 230120Z AUTO 07005KT 9999 -RA //////TCU 07/06 Q1012
EGPF 230050Z AUTO 06004KT 9999 -RA FEW023/// //////TCU 07/06 Q1012  
EGPF 230020Z AUTO 06003KT 9999 -RA //////TCU 07/06 Q1012
EGPF 222350Z AUTO 12004KT 9999 NCD 06/05 Q1012  
EGPF 222320Z AUTO 09004KT 070V140 9999 NCD 07/05 Q1013  
EGPF 222250Z AUTO 09003KT 9999 NCD 05/04 Q1012  
EGPF 222220Z AUTO 36002KT 9999 SCT044 05/04 Q1012   
EGPF 222150Z AUTO 02003KT 9999 BKN045 06/04 Q1012   
EGPF 222120Z AUTO VRB02KT 9999 FEW029 BKN046 06/04 Q1013
EGPF 222050Z AUTO VRB02KT 9999 BKN048 06/04 Q1013   
EGPF 222020Z AUTO 22004KT 9999 SCT049 07/04 Q1012   
EGPF 221950Z AUTO VRB03KT 9999 NCD 08/04 Q1012  
EGPF 221920Z AUTO 23007KT 9999 FEW040 07/04 Q1012   
EGPF 221850Z AUTO 23009KT 9999 BKN039 09/05 Q1012   
EGPF 221820Z AUTO 23006KT 9999 FEW042 08/04 Q1012   
EGPF 221750Z AUTO 25008KT 9999 BKN037 09/05 Q1011   
EGPF 221720Z AUTO 26009KT 9999 FEW041 09/06 Q1011   
EGPF 221650Z AUTO 24008KT 9999 SCT036 10/06 Q1010   
EGPF 221620Z AUTO 26013KT 9999 SCT031 10/07 Q1010   
EGPF 221550Z AUTO 26011KT 9999 SCT020 BKN028 10/07 Q1010
EGPF 221520Z AUTO 26013KT 9999 BKN021 11/08 Q1009   
EGPF 221450Z AUTO 26014KT 230V300 9999 SCT023 BKN027 BKN032 11/07 Q1009 
EGPF 221420Z AUTO 27014KT 9999 FEW024 BKN029 12/08 Q1009
EGPF 221350Z AUTO 28017KT 9999 SCT024 SCT028 BKN035 12/08 Q1008 
EGPF 221320Z AUTO 28018KT 9999 SCT021 BKN028 13/09 Q1008
EGPF 221250Z AUTO 28018KT 9999 FEW021 13/09 Q1007   
EGPF 221220Z AUTO 27018KT 9999 BKN019 BKN027 12/09 Q1007
EGPF 221150Z AUTO 28016KT 9999 SCT020 SCT027 BKN042 12/09 Q1007 
EGPF 221120Z AUTO 28017KT 9999 SCT019 BKN025 BKN030 12/09 Q1006 
EGPF 221050Z AUTO 27014KT 240V310 9999 BKN019 BKN026 12/09 Q1005